Time;durP1;ratioP1;P1;durP2;ratioP2;P2;SDS_P1;SDS_P2;PMS_P1;PMS_P2;Temp;Humidity;BMP_temperature;BMP_pressure;BME280_temperature;BME280_humidity;BME280_pressure;Samples;Min_cycle;Max_cycle;Signal;HPM_P1;HPM_P2
2023/05/08 00:03:06;;;;;;;;;;;16.01;8.76;;;;;;2675073;76;20344;-93
2023/05/08 00:06:37;;;;;;;;;;;15.96;8.85;;;;;;2675109;76;20342;-92
2023/05/08 00:10:06;;;;;;;;;;;15.93;8.77;;;;;;2675368;76;20310;-91
2023/05/08 00:13:34;;;;;;;;;;;15.92;8.72;;;;;;2674932;76;20314;-91
2023/05/08 00:17:04;;;;;;;;;;;15.91;8.61;;;;;;2675233;76;20738;-93
2023/05/08 00:20:33;;;;;;;;;;;15.93;8.60;;;;;;2675324;76;20302;-91
2023/05/08 00:24:01;;;;;;;;;;;15.90;8.76;;;;;;2674585;76;20299;-91
2023/05/08 00:27:29;;;;;;;;;;;15.88;8.72;;;;;;2675128;76;20313;-91
2023/05/08 00:30:57;;;;;;;;;;;15.88;8.75;;;;;;2674628;76;20348;-90
2023/05/08 00:34:25;;;;;;;;;;;15.80;8.96;;;;;;2674967;76;20380;-91
2023/05/08 00:37:53;;;;;;;;;;;15.74;9.01;;;;;;2674821;76;20316;-91
2023/05/08 00:41:21;;;;;;;;;;;15.71;9.11;;;;;;2675204;76;20299;-92
2023/05/08 00:44:49;;;;;;;;;;;15.68;9.22;;;;;;2674738;76;20350;-91
2023/05/08 00:48:18;;;;;;;;;;;15.65;9.52;;;;;;2674885;76;20308;-91
2023/05/08 00:51:46;;;;;;;;;;;15.59;9.53;;;;;;2674743;76;20326;-91
2023/05/08 00:55:15;;;;;;;;;;;15.58;9.69;;;;;;2674417;76;20302;-91
2023/05/08 00:58:43;;;;;;;;;;;15.56;9.76;;;;;;2674519;76;20299;-91
2023/05/08 01:02:11;;;;;;;;;;;15.56;9.76;;;;;;2674802;76;20303;-90
2023/05/08 01:05:39;;;;;;;;;;;15.51;9.91;;;;;;2674340;76;20296;-91
2023/05/08 01:09:07;;;;;;;;;;;15.44;10.03;;;;;;2674779;76;20312;-91
2023/05/08 01:12:35;;;;;;;;;;;15.44;10.29;;;;;;2674402;76;20324;-91
2023/05/08 01:16:05;;;;;;;;;;;15.39;10.24;;;;;;2674186;76;20296;-90
2023/05/08 01:19:38;;;;;;;;;;;15.36;10.24;;;;;;2674943;76;20309;-91
2023/05/08 01:23:04;;;;;;;;;;;15.36;10.33;;;;;;2674895;76;20334;-91
2023/05/08 01:26:32;;;;;;;;;;;15.32;10.35;;;;;;2674274;76;20331;-91
2023/05/08 01:30:00;;;;;;;;;;;15.29;10.39;;;;;;2674509;76;20397;-91
2023/05/08 01:33:28;;;;;;;;;;;15.25;10.56;;;;;;2674711;76;20294;-91
2023/05/08 01:36:56;;;;;;;;;;;15.22;10.62;;;;;;2674425;76;20302;-91
2023/05/08 01:40:24;;;;;;;;;;;15.22;10.59;;;;;;2674394;76;20324;-91
2023/05/08 01:43:52;;;;;;;;;;;15.10;10.77;;;;;;2673774;76;20762;-91
2023/05/08 01:47:20;;;;;;;;;;;15.10;10.78;;;;;;2674621;76;20358;-91
2023/05/08 01:50:48;;;;;;;;;;;15.12;10.72;;;;;;2674307;76;20306;-90
2023/05/08 01:54:16;;;;;;;;;;;15.10;10.67;;;;;;2674308;76;20303;-91
2023/05/08 01:57:44;;;;;;;;;;;15.01;10.91;;;;;;2674495;76;20486;-91
2023/05/08 02:04:52;;;;;;;;;;;15.02;10.86;;;;;;2673883;76;20324;-91
2023/05/08 02:08:20;;;;;;;;;;;15.06;10.83;;;;;;2674404;76;20339;-91
2023/05/08 02:11:48;;;;;;;;;;;15.04;10.75;;;;;;2674575;76;20324;-92
2023/05/08 02:15:16;;;;;;;;;;;14.97;10.92;;;;;;2674487;76;20319;-91
2023/05/08 02:18:44;;;;;;;;;;;14.97;10.95;;;;;;2674640;76;20294;-90
2023/05/08 02:22:12;;;;;;;;;;;14.85;10.94;;;;;;2674665;76;20308;-91
2023/05/08 02:25:40;;;;;;;;;;;14.79;10.87;;;;;;2674519;76;20349;-91
2023/05/08 02:29:08;;;;;;;;;;;14.74;10.89;;;;;;2673405;76;20327;-91
2023/05/08 02:32:37;;;;;;;;;;;14.62;10.80;;;;;;2673566;76;20367;-90
2023/05/08 02:36:05;;;;;;;;;;;14.60;10.86;;;;;;2674778;76;20314;-91
2023/05/08 02:39:33;;;;;;;;;;;14.52;10.53;;;;;;2673971;76;20309;-90
2023/05/08 02:43:01;;;;;;;;;;;14.48;10.54;;;;;;2674119;76;20326;-92
2023/05/08 02:46:29;;;;;;;;;;;14.39;10.49;;;;;;2674271;76;20341;-91
2023/05/08 02:49:57;;;;;;;;;;;14.41;10.62;;;;;;2674410;76;20308;-92
2023/05/08 02:53:25;;;;;;;;;;;14.37;10.52;;;;;;2674216;76;20302;-91
2023/05/08 02:56:53;;;;;;;;;;;14.35;10.71;;;;;;2674937;76;20402;-92
2023/05/08 03:00:22;;;;;;;;;;;14.28;11.01;;;;;;2673815;76;20737;-88
2023/05/08 03:03:50;;;;;;;;;;;14.25;10.97;;;;;;2673906;76;20362;-90
2023/05/08 03:07:18;;;;;;;;;;;14.21;11.15;;;;;;2674639;76;20849;-91
2023/05/08 03:10:46;;;;;;;;;;;14.21;11.18;;;;;;2674465;76;20810;-90
2023/05/08 03:14:14;;;;;;;;;;;14.14;11.23;;;;;;2675102;76;20307;-90
2023/05/08 03:17:43;;;;;;;;;;;13.99;10.98;;;;;;2674676;76;20761;-89
2023/05/08 03:21:12;;;;;;;;;;;13.91;10.84;;;;;;2674629;76;20847;-90
2023/05/08 03:24:40;;;;;;;;;;;13.88;10.67;;;;;;2675136;76;20298;-90
2023/05/08 03:28:08;;;;;;;;;;;13.82;10.63;;;;;;2674886;76;20289;-89
2023/05/08 03:31:36;;;;;;;;;;;13.80;10.54;;;;;;2675114;76;20311;-91
2023/05/08 03:35:04;;;;;;;;;;;13.68;10.43;;;;;;2674840;76;20302;-90
2023/05/08 03:38:32;;;;;;;;;;;13.60;10.52;;;;;;2675108;76;20621;-90
2023/05/08 03:42:00;;;;;;;;;;;13.53;10.43;;;;;;2675020;76;20727;-90
2023/05/08 03:45:28;;;;;;;;;;;13.59;10.43;;;;;;2674935;76;20620;-91
2023/05/08 03:48:56;;;;;;;;;;;13.56;10.24;;;;;;2674894;76;20671;-90
2023/05/08 03:52:29;;;;;;;;;;;13.48;10.24;;;;;;2675008;76;20777;-91
2023/05/08 03:55:57;;;;;;;;;;;13.55;10.14;;;;;;2675502;76;20720;-92
2023/05/08 03:59:26;;;;;;;;;;;13.63;9.89;;;;;;2674611;76;20304;-92
2023/05/08 04:02:54;;;;;;;;;;;13.61;9.64;;;;;;2674781;76;20330;-92
2023/05/08 04:06:26;;;;;;;;;;;13.62;9.46;;;;;;2675039;76;20307;-91
2023/05/08 04:09:53;;;;;;;;;;;13.64;9.50;;;;;;2675067;76;20311;-92
2023/05/08 04:13:21;;;;;;;;;;;13.56;9.47;;;;;;2675040;76;20357;-92
2023/05/08 04:16:49;;;;;;;;;;;13.62;9.63;;;;;;2675350;76;20776;-92
2023/05/08 04:20:17;;;;;;;;;;;13.71;9.40;;;;;;2674933;76;20310;-90
2023/05/08 04:23:45;;;;;;;;;;;13.75;9.13;;;;;;2673252;76;20367;-93
2023/05/08 04:27:13;;;;;;;;;;;13.79;9.28;;;;;;2673930;76;20365;-91
2023/05/08 04:30:41;;;;;;;;;;;13.71;9.31;;;;;;2674164;76;20358;-93
2023/05/08 04:34:09;;;;;;;;;;;13.84;8.97;;;;;;2672903;76;20399;-92
2023/05/08 04:37:37;;;;;;;;;;;13.83;8.17;;;;;;2673939;76;20778;-92
2023/05/08 04:41:06;;;;;;;;;;;13.83;7.82;;;;;;2674345;76;20335;-92
2023/05/08 04:44:34;;;;;;;;;;;13.95;7.50;;;;;;2674031;76;20342;-92
2023/05/08 04:48:02;;;;;;;;;;;14.00;7.11;;;;;;2674136;76;20365;-92
2023/05/08 04:51:30;;;;;;;;;;;14.09;6.91;;;;;;2674027;76;20323;-92
2023/05/08 04:54:58;;;;;;;;;;;14.20;6.79;;;;;;2674396;76;20354;-92
2023/05/08 04:58:27;;;;;;;;;;;14.19;6.33;;;;;;2672292;76;20770;-92
2023/05/08 05:01:56;;;;;;;;;;;14.28;6.42;;;;;;2672398;76;20354;-92
2023/05/08 05:05:24;;;;;;;;;;;14.41;6.26;;;;;;2673316;76;20342;-92
2023/05/08 05:08:52;;;;;;;;;;;14.54;6.01;;;;;;2673786;76;20780;-91
2023/05/08 05:12:20;;;;;;;;;;;14.59;5.81;;;;;;2671496;76;20732;-90
2023/05/08 05:15:50;;;;;;;;;;;14.57;5.28;;;;;;2670876;76;20388;-89
2023/05/08 05:19:18;;;;;;;;;;;14.53;4.92;;;;;;2671686;76;20328;-90
2023/05/08 05:22:46;;;;;;;;;;;14.39;4.56;;;;;;2671209;76;20355;-91
2023/05/08 05:26:14;;;;;;;;;;;14.35;4.74;;;;;;2670466;76;20376;-91
2023/05/08 05:29:42;;;;;;;;;;;14.19;4.40;;;;;;2669605;76;20324;-92
2023/05/08 05:33:10;;;;;;;;;;;14.18;4.38;;;;;;2669879;76;20372;-89
2023/05/08 05:36:38;;;;;;;;;;;14.14;4.32;;;;;;2671234;76;20347;-89
2023/05/08 05:40:06;;;;;;;;;;;14.10;4.10;;;;;;2671014;76;20348;-90
2023/05/08 05:43:35;;;;;;;;;;;14.20;4.12;;;;;;2669532;76;20725;-90
2023/05/08 05:47:04;;;;;;;;;;;14.37;3.59;;;;;;2669088;76;20373;-90
2023/05/08 05:50:32;;;;;;;;;;;14.52;3.19;;;;;;2670675;76;20369;-90
2023/05/08 05:54:00;;;;;;;;;;;14.60;2.88;;;;;;2670773;76;20384;-90
2023/05/08 05:57:28;;;;;;;;;;;14.62;2.74;;;;;;2671251;76;20373;-90
2023/05/08 06:00:56;;;;;;;;;;;14.72;2.59;;;;;;2671195;76;20371;-90
2023/05/08 06:04:25;;;;;;;;;;;15.01;2.44;;;;;;2671924;76;20340;-90
2023/05/08 06:07:53;;;;;;;;;;;15.23;2.22;;;;;;2671959;76;20360;-90
2023/05/08 06:11:21;;;;;;;;;;;15.23;1.84;;;;;;2672098;76;20406;-90
2023/05/08 06:14:50;;;;;;;;;;;15.25;1.23;;;;;;2671498;76;20811;-90
2023/05/08 06:18:18;;;;;;;;;;;15.33;0.98;;;;;;2672334;76;20349;-90
2023/05/08 06:21:49;;;;;;;;;;;15.44;0.68;;;;;;2671724;76;20452;-90
2023/05/08 06:25:18;;;;;;;;;;;15.60;0.51;;;;;;2671387;76;20848;-89
2023/05/08 06:28:46;;;;;;;;;;;15.71;-0.12;;;;;;2672158;76;20372;-90
2023/05/08 06:32:14;;;;;;;;;;;16.02;-0.38;;;;;;2672090;76;20320;-90
2023/05/08 06:35:42;;;;;;;;;;;16.10;-1.25;;;;;;2671575;76;20347;-90
2023/05/08 06:39:10;;;;;;;;;;;16.04;-1.74;;;;;;2672614;76;20349;-90
2023/05/08 06:42:40;;;;;;;;;;;16.10;-1.74;;;;;;2671888;76;20322;-90
2023/05/08 06:46:08;;;;;;;;;;;16.35;-1.90;;;;;;2672516;76;20361;-90
2023/05/08 06:49:36;;;;;;;;;;;16.17;-2.38;;;;;;2672351;76;20848;-90
2023/05/08 06:53:04;;;;;;;;;;;15.85;-2.35;;;;;;2672272;76;20345;-90
2023/05/08 06:56:32;;;;;;;;;;;15.70;-1.98;;;;;;2672262;76;20336;-89
2023/05/08 07:00:01;;;;;;;;;;;15.60;-1.49;;;;;;2671949;76;20357;-90
2023/05/08 07:03:29;;;;;;;;;;;15.53;-1.53;;;;;;2671915;76;20442;-90
2023/05/08 07:06:57;;;;;;;;;;;15.61;-1.32;;;;;;2671983;76;20367;-90
2023/05/08 07:10:25;;;;;;;;;;;15.40;-1.35;;;;;;2672187;76;20316;-91
2023/05/08 07:13:59;;;;;;;;;;;15.42;-1.03;;;;;;2672376;76;20317;-90
2023/05/08 07:17:23;;;;;;;;;;;15.56;-1.48;;;;;;2671211;76;20315;-90
2023/05/08 07:20:51;;;;;;;;;;;15.87;-2.02;;;;;;2672097;76;20659;-90
2023/05/08 07:24:19;;;;;;;;;;;16.47;-2.65;;;;;;2672188;76;20354;-90
2023/05/08 07:27:47;;;;;;;;;;;16.71;-4.03;;;;;;2671544;76;20346;-90
2023/05/08 07:31:16;;;;;;;;;;;16.95;-4.70;;;;;;2672338;76;20843;-90
2023/05/08 07:34:44;;;;;;;;;;;17.02;-5.08;;;;;;2672460;76;20357;-90
2023/05/08 07:38:12;;;;;;;;;;;17.30;-5.13;;;;;;2671719;76;20312;-90
2023/05/08 07:41:40;;;;;;;;;;;17.36;118.87;;;;;;2672448;76;20324;-90
2023/05/08 07:45:08;;;;;;;;;;;17.69;118.47;;;;;;2672493;76;20320;-90
2023/05/08 07:48:36;;;;;;;;;;;18.03;117.62;;;;;;2671552;76;20395;-90
2023/05/08 07:52:05;;;;;;;;;;;18.13;117.26;;;;;;2671770;76;20353;-90
2023/05/08 07:55:33;;;;;;;;;;;18.29;116.55;;;;;;2671968;76;20630;-90
2023/05/08 07:59:01;;;;;;;;;;;18.52;115.03;;;;;;2672407;76;20843;-91
2023/05/08 08:02:29;;;;;;;;;;;19.17;114.33;;;;;;2671919;76;20337;-91
2023/05/08 08:05:57;;;;;;;;;;;19.89;113.67;;;;;;2671796;76;20353;-90
2023/05/08 08:09:25;;;;;;;;;;;20.43;112.19;;;;;;2671909;76;20331;-91
2023/05/08 08:12:53;;;;;;;;;;;20.31;110.62;;;;;;2671814;76;20346;-90
2023/05/08 08:16:21;;;;;;;;;;;20.35;110.77;;;;;;2672530;76;20321;-91
2023/05/08 08:19:49;;;;;;;;;;;20.02;110.48;;;;;;2672051;76;20335;-91
2023/05/08 08:23:17;;;;;;;;;;;20.24;110.77;;;;;;2671993;76;20700;-90
2023/05/08 08:26:46;;;;;;;;;;;20.19;110.78;;;;;;2672181;76;20789;-90
2023/05/08 08:30:14;;;;;;;;;;;19.91;110.52;;;;;;2670147;76;20366;-90
2023/05/08 08:33:58;;;;;;;;;;;20.40;110.28;;;;;;2671061;76;20357;-90
2023/05/08 08:37:12;;;;;;;;;;;20.85;109.21;;;;;;2671338;76;20366;-90
2023/05/08 08:40:42;;;;;;;;;;;21.16;108.81;;;;;;2671157;76;20506;-90
2023/05/08 08:44:10;;;;;;;;;;;21.66;108.60;;;;;;2671098;76;20406;-90
2023/05/08 08:47:40;;;;;;;;;;;21.33;107.46;;;;;;2671653;76;20418;-90
2023/05/08 08:51:08;;;;;;;;;;;21.01;107.75;;;;;;2671469;76;20359;-90
2023/05/08 08:54:36;;;;;;;;;;;21.02;108.45;;;;;;2671428;76;20331;-90
2023/05/08 08:58:04;;;;;;;;;;;20.71;108.79;;;;;;2671064;76;20355;-90
2023/05/08 09:01:32;;;;;;;;;;;20.96;108.95;;;;;;2671460;76;20344;-89
2023/05/08 09:05:00;;;;;;;;;;;20.89;108.92;;;;;;2672001;76;20360;-90
2023/05/08 09:08:28;;;;;;;;;;;20.68;109.20;;;;;;2672016;76;20368;-90
2023/05/08 09:11:57;;;;;;;;;;;20.56;109.50;;;;;;2671744;76;20379;-90
2023/05/08 09:15:25;;;;;;;;;;;20.32;109.62;;;;;;2672199;76;20383;-90
2023/05/08 09:18:53;;;;;;;;;;;20.46;110.19;;;;;;2671730;76;20331;-90
2023/05/08 09:22:26;;;;;;;;;;;20.65;110.19;;;;;;2671724;76;20810;-90
2023/05/08 09:25:51;;;;;;;;;;;20.63;109.61;;;;;;2672055;76;20336;-90
2023/05/08 09:29:20;;;;;;;;;;;20.74;109.53;;;;;;2671912;76;20377;-90
2023/05/08 09:32:48;;;;;;;;;;;20.60;109.57;;;;;;2671972;76;20348;-90
2023/05/08 09:36:17;;;;;;;;;;;20.76;110.22;;;;;;2671596;76;20991;-90
2023/05/08 09:39:46;;;;;;;;;;;20.73;110.26;;;;;;2671743;76;20352;-90
2023/05/08 09:43:14;;;;;;;;;;;21.29;110.36;;;;;;2672212;76;20330;-90
2023/05/08 09:46:42;;;;;;;;;;;21.64;110.15;;;;;;2672182;76;20346;-90
2023/05/08 09:50:13;;;;;;;;;;;22.03;109.30;;;;;;2671278;76;20351;-90
2023/05/08 09:53:40;;;;;;;;;;;22.55;108.10;;;;;;2672311;76;20336;-90
2023/05/08 09:57:09;;;;;;;;;;;22.61;106.63;;;;;;2672054;76;20360;-90
2023/05/08 10:00:37;;;;;;;;;;;22.72;106.03;;;;;;2671982;76;20356;-90
2023/05/08 10:04:06;;;;;;;;;;;23.01;106.24;;;;;;2672434;76;20377;-90
2023/05/08 10:07:34;;;;;;;;;;;23.32;105.95;;;;;;2670913;76;20356;-90
2023/05/08 10:11:02;;;;;;;;;;;23.38;105.69;;;;;;2672776;76;20338;-90
2023/05/08 10:14:31;;;;;;;;;;;23.28;105.83;;;;;;2672305;76;20323;-90
2023/05/08 10:17:59;;;;;;;;;;;23.51;105.97;;;;;;2672161;76;20322;-90
2023/05/08 10:21:27;;;;;;;;;;;23.56;106.00;;;;;;2672380;76;20851;-90
2023/05/08 10:24:55;;;;;;;;;;;23.18;105.69;;;;;;2672371;76;20828;-90
2023/05/08 10:28:23;;;;;;;;;;;22.87;106.34;;;;;;2672271;76;20315;-90
2023/05/08 10:31:51;;;;;;;;;;;22.98;106.17;;;;;;2671613;76;20770;-90
2023/05/08 10:35:19;;;;;;;;;;;23.38;106.05;;;;;;2672139;76;20740;-90
2023/05/08 10:38:47;;;;;;;;;;;23.40;105.97;;;;;;2672804;76;20388;-90
2023/05/08 10:42:15;;;;;;;;;;;23.40;105.99;;;;;;2672224;76;20372;-90
2023/05/08 10:45:43;;;;;;;;;;;23.56;106.22;;;;;;2672617;76;20329;-90
2023/05/08 10:49:13;;;;;;;;;;;23.74;106.23;;;;;;2672020;76;20367;-90
2023/05/08 10:52:41;;;;;;;;;;;23.91;105.46;;;;;;2671788;76;20448;-90
2023/05/08 10:56:09;;;;;;;;;;;23.85;105.63;;;;;;2672716;76;20359;-90
2023/05/08 10:59:38;;;;;;;;;;;23.74;105.71;;;;;;2671786;76;20374;-90
2023/05/08 11:03:06;;;;;;;;;;;23.54;105.78;;;;;;2671219;76;20356;-89
2023/05/08 11:06:34;;;;;;;;;;;23.41;105.12;;;;;;2669412;76;20369;-90
2023/05/08 11:10:02;;;;;;;;;;;23.53;105.08;;;;;;2671039;76;20383;-90
2023/05/08 11:13:30;;;;;;;;;;;23.76;104.26;;;;;;2671411;76;20331;-90
2023/05/08 11:17:01;;;;;;;;;;;24.08;103.69;;;;;;2671140;76;20392;-89
2023/05/08 11:20:29;;;;;;;;;;;24.13;102.90;;;;;;2671697;76;20825;-90
2023/05/08 11:23:58;;;;;;;;;;;24.05;102.22;;;;;;2672662;76;20355;-90
2023/05/08 11:27:26;;;;;;;;;;;24.69;102.22;;;;;;2672069;76;20817;-90
2023/05/08 11:30:59;;;;;;;;;;;24.69;101.69;;;;;;2672119;76;20342;-90
2023/05/08 11:34:26;;;;;;;;;;;24.76;101.01;;;;;;2672239;76;20781;-90
2023/05/08 11:37:54;;;;;;;;;;;24.78;100.81;;;;;;2670270;76;20999;-90
2023/05/08 11:41:23;;;;;;;;;;;24.92;100.88;;;;;;2671899;76;20848;-90
2023/05/08 11:44:51;;;;;;;;;;;25.13;100.41;;;;;;2672148;76;20331;-91
2023/05/08 11:48:22;;;;;;;;;;;25.34;100.43;;;;;;2671501;76;20379;-90
2023/05/08 11:51:53;;;;;;;;;;;25.16;100.40;;;;;;2671922;76;20339;-90
2023/05/08 11:55:20;;;;;;;;;;;25.15;100.62;;;;;;2670814;76;20340;-90
2023/05/08 11:58:48;;;;;;;;;;;25.30;100.46;;;;;;2672078;76;20382;-90
2023/05/08 12:02:16;;;;;;;;;;;25.07;99.52;;;;;;2671180;76;20378;-90
2023/05/08 12:05:44;;;;;;;;;;;25.17;99.04;;;;;;2671345;76;21366;-89
2023/05/08 12:09:12;;;;;;;;;;;25.22;98.45;;;;;;2671354;76;20362;-90
2023/05/08 12:12:40;;;;;;;;;;;25.06;97.79;;;;;;2671854;76;20323;-90
2023/05/08 12:16:08;;;;;;;;;;;25.37;98.28;;;;;;2671206;76;20394;-92
2023/05/08 12:19:36;;;;;;;;;;;25.13;98.86;;;;;;2671943;76;20312;-90
2023/05/08 12:23:04;;;;;;;;;;;25.39;98.99;;;;;;2672863;76;20800;-89
2023/05/08 12:26:33;;;;;;;;;;;25.66;98.34;;;;;;2672302;76;20669;-88
2023/05/08 12:30:01;;;;;;;;;;;25.60;97.91;;;;;;2673908;76;20343;-90
2023/05/08 12:33:29;;;;;;;;;;;25.30;97.88;;;;;;2673249;76;20335;-89
2023/05/08 12:36:58;;;;;;;;;;;25.18;97.93;;;;;;2672148;76;20303;-90
2023/05/08 12:40:26;;;;;;;;;;;25.50;98.43;;;;;;2673752;76;20835;-89
2023/05/08 12:43:56;;;;;;;;;;;25.19;97.65;;;;;;2673237;76;20359;-90
2023/05/08 12:47:24;;;;;;;;;;;25.13;98.13;;;;;;2673034;76;20385;-90
2023/05/08 12:50:52;;;;;;;;;;;25.21;98.66;;;;;;2673855;76;20297;-89
2023/05/08 12:54:20;;;;;;;;;;;25.31;99.23;;;;;;2673499;76;20319;-89
2023/05/08 12:57:48;;;;;;;;;;;25.28;99.17;;;;;;2673807;76;20316;-90
2023/05/08 13:01:16;;;;;;;;;;;25.49;98.81;;;;;;2673639;76;20831;-90
2023/05/08 13:04:44;;;;;;;;;;;25.94;98.87;;;;;;2673002;76;20333;-89
2023/05/08 13:08:12;;;;;;;;;;;26.20;98.16;;;;;;2674028;76;20303;-89
2023/05/08 13:11:40;;;;;;;;;;;26.67;97.44;;;;;;2671752;76;20295;-89
2023/05/08 13:15:08;;;;;;;;;;;26.47;97.29;;;;;;2677713;76;20307;-89
2023/05/08 13:18:36;;;;;;;;;;;25.99;97.87;;;;;;2673354;76;20994;-88
2023/05/08 13:22:05;;;;;;;;;;;25.37;98.62;;;;;;2672477;76;21937;-90
2023/05/08 13:25:33;;;;;;;;;;;25.15;99.18;;;;;;2672515;76;20295;-89
2023/05/08 13:29:01;;;;;;;;;;;25.21;99.44;;;;;;2673382;76;20327;-89
2023/05/08 13:32:29;;;;;;;;;;;25.29;99.24;;;;;;2673762;76;20298;-89
2023/05/08 13:35:58;;;;;;;;;;;24.92;98.62;;;;;;2671397;76;20326;-89
2023/05/08 13:39:26;;;;;;;;;;;24.38;98.31;;;;;;2673397;76;20374;-90
2023/05/08 13:42:54;;;;;;;;;;;24.14;99.19;;;;;;2672242;76;20355;-90
2023/05/08 13:46:22;;;;;;;;;;;24.13;99.70;;;;;;2672600;76;20333;-90
2023/05/08 13:49:50;;;;;;;;;;;24.11;100.07;;;;;;2672937;76;21235;-89
2023/05/08 13:53:18;;;;;;;;;;;23.95;100.18;;;;;;2672882;76;20364;-90
2023/05/08 13:56:47;;;;;;;;;;;23.98;99.78;;;;;;2672263;76;20390;-89
2023/05/08 14:00:15;;;;;;;;;;;23.88;99.42;;;;;;2672989;76;20340;-90
2023/05/08 14:03:43;;;;;;;;;;;23.92;99.72;;;;;;2673064;76;20309;-90
2023/05/08 14:07:15;;;;;;;;;;;23.90;100.13;;;;;;2674188;76;20381;-90
2023/05/08 14:11:52;;;;;;;;;;;23.41;100.62;;;;;;2671705;76;20369;-88
2023/05/08 14:16:16;;;;;;;;;;;23.17;101.39;;;;;;2672739;76;20799;-91
2023/05/08 14:19:47;;;;;;;;;;;23.14;102.40;;;;;;2672182;76;20309;-90
2023/05/08 14:23:18;;;;;;;;;;;23.22;102.46;;;;;;2674030;76;20294;-91
2023/05/08 14:26:51;;;;;;;;;;;22.99;102.44;;;;;;2673849;76;20901;-92
2023/05/08 14:30:16;;;;;;;;;;;22.67;102.78;;;;;;2673955;76;20378;-91
2023/05/08 14:33:45;;;;;;;;;;;22.50;103.36;;;;;;2674313;76;20389;-91
2023/05/08 14:37:15;;;;;;;;;;;22.47;103.76;;;;;;2674363;76;20377;-91
2023/05/08 14:40:43;;;;;;;;;;;22.53;103.93;;;;;;2673897;76;20325;-91
2023/05/08 14:44:11;;;;;;;;;;;22.64;104.03;;;;;;2673016;76;20314;-91
2023/05/08 14:47:40;;;;;;;;;;;22.85;103.76;;;;;;2674287;76;20331;-93
2023/05/08 14:51:12;;;;;;;;;;;22.91;103.83;;;;;;2674107;76;20385;-93
2023/05/08 14:54:43;;;;;;;;;;;23.10;103.69;;;;;;2674513;76;20362;-92
2023/05/08 14:58:16;;;;;;;;;;;23.41;103.20;;;;;;2675245;76;20310;-93
2023/05/08 15:01:41;;;;;;;;;;;23.59;102.82;;;;;;2674139;76;20720;-93
2023/05/08 15:05:17;;;;;;;;;;;23.87;102.54;;;;;;2672632;76;20342;-92
2023/05/08 15:08:40;;;;;;;;;;;24.04;102.47;;;;;;2674486;76;20343;-91
2023/05/08 15:12:08;;;;;;;;;;;24.08;102.18;;;;;;2674167;76;20312;-92
2023/05/08 15:15:46;;;;;;;;;;;24.28;102.23;;;;;;2676277;76;20305;-93
2023/05/08 15:19:19;;;;;;;;;;;24.90;101.70;;;;;;2676661;76;20320;-93
2023/05/08 15:22:59;;;;;;;;;;;25.40;100.97;;;;;;2674723;76;20325;-92
2023/05/08 15:30:34;;;;;;;;;;;25.36;99.86;;;;;;2675868;76;20327;-92
2023/05/08 15:38:46;;;;;;;;;;;25.03;100.01;;;;;;2675789;76;20335;-91
2023/05/08 15:46:01;;;;;;;;;;;23.57;101.03;;;;;;2672468;76;20313;-91
2023/05/08 15:49:31;;;;;;;;;;;23.24;101.99;;;;;;2673341;76;20329;-92
2023/05/08 15:53:12;;;;;;;;;;;;;;;;;;;;;
2023/05/08 15:56:37;;;;;;;;;;;22.41;103.92;;;;;;2673700;76;20605;-92
2023/05/08 16:03:46;;;;;;;;;;;22.16;104.73;;;;;;2672966;76;20971;-93
2023/05/08 16:07:22;;;;;;;;;;;22.08;104.86;;;;;;2673059;76;20363;-93
2023/05/08 16:10:53;;;;;;;;;;;21.95;104.94;;;;;;2674275;76;20318;-93
2023/05/08 16:14:34;;;;;;;;;;;;;;;;;;;;;
2023/05/08 16:18:09;;;;;;;;;;;;;;;;;;;;;
2023/05/08 16:21:28;;;;;;;;;;;21.27;106.79;;;;;;2673442;76;20343;-93
2023/05/08 16:28:36;;;;;;;;;;;20.86;108.16;;;;;;2672209;76;20832;-93
2023/05/08 16:32:17;;;;;;;;;;;20.80;108.29;;;;;;2672908;76;20341;-93
2023/05/08 16:35:44;;;;;;;;;;;20.68;108.78;;;;;;2672891;76;20635;-92
2023/05/08 16:43:19;;;;;;;;;;;20.42;109.65;;;;;;2672468;76;20366;-93
2023/05/08 16:46:32;;;;;;;;;;;20.34;109.81;;;;;;2676800;76;20344;-93
2023/05/08 16:50:08;;;;;;;;;;;20.05;110.91;;;;;;2673308;76;20308;-92
2023/05/08 16:53:48;;;;;;;;;;;20.17;111.03;;;;;;2672501;76;20365;-93
2023/05/08 16:57:26;;;;;;;;;;;20.12;111.38;;;;;;2671545;76;20353;-94
2023/05/08 17:04:51;;;;;;;;;;;20.34;110.91;;;;;;2672192;76;20365;-93
2023/05/08 17:08:29;;;;;;;;;;;20.31;110.96;;;;;;2672416;76;20358;-91
2023/05/08 17:11:56;;;;;;;;;;;20.34;110.97;;;;;;2672115;76;20353;-92
2023/05/08 17:15:28;;;;;;;;;;;20.32;111.03;;;;;;2673478;76;20343;-91
2023/05/08 17:18:58;;;;;;;;;;;20.35;111.03;;;;;;2672457;76;20831;-91
2023/05/08 17:22:26;;;;;;;;;;;20.17;111.51;;;;;;2673044;76;20395;-91
2023/05/08 17:25:57;;;;;;;;;;;20.15;111.66;;;;;;2673060;76;20336;-91
2023/05/08 17:29:28;;;;;;;;;;;20.00;112.23;;;;;;2672705;76;20330;-92
2023/05/08 17:32:59;;;;;;;;;;;19.90;112.58;;;;;;2672673;76;20392;-91
2023/05/08 17:36:27;;;;;;;;;;;20.03;112.32;;;;;;2673205;76;20346;-92
2023/05/08 17:39:55;;;;;;;;;;;19.99;112.55;;;;;;2672462;76;20307;-92
2023/05/08 17:43:27;;;;;;;;;;;19.68;113.16;;;;;;2673556;76;20448;-93
2023/05/08 17:46:56;;;;;;;;;;;19.81;113.41;;;;;;2673652;76;20396;-93
2023/05/08 17:50:24;;;;;;;;;;;19.77;113.85;;;;;;2673190;76;20323;-91
2023/05/08 17:53:55;;;;;;;;;;;19.79;114.08;;;;;;2672983;76;20813;-92
2023/05/08 17:57:23;;;;;;;;;;;19.76;114.10;;;;;;2672929;76;20773;-91
2023/05/08 18:00:56;;;;;;;;;;;19.55;114.57;;;;;;2674732;76;20328;-92
2023/05/08 18:04:25;;;;;;;;;;;19.54;114.72;;;;;;2674921;76;20541;-93
2023/05/08 18:07:58;;;;;;;;;;;19.32;115.41;;;;;;2673940;76;20372;-91
2023/05/08 18:11:28;;;;;;;;;;;19.06;115.60;;;;;;2672527;76;20347;-92
2023/05/08 18:14:58;;;;;;;;;;;18.69;116.04;;;;;;2673462;76;20325;-92
2023/05/08 18:18:37;;;;;;;;;;;18.41;116.39;;;;;;2673290;76;20369;-92
2023/05/08 18:22:10;;;;;;;;;;;18.17;117.11;;;;;;2672340;76;20358;-92
2023/05/08 18:25:45;;;;;;;;;;;17.88;117.70;;;;;;2673131;76;20375;-92
2023/05/08 18:29:10;;;;;;;;;;;17.66;117.53;;;;;;2673210;76;20334;-92
2023/05/08 18:32:47;;;;;;;;;;;17.34;117.20;;;;;;2672723;76;20426;-92
2023/05/08 18:36:30;;;;;;;;;;;17.26;117.27;;;;;;2673820;76;20351;-92
2023/05/08 18:39:56;;;;;;;;;;;17.09;117.55;;;;;;2672955;76;20318;-91
2023/05/08 18:43:26;;;;;;;;;;;16.93;117.48;;;;;;2673637;76;20770;-91
2023/05/08 18:47:00;;;;;;;;;;;16.73;117.43;;;;;;2673893;76;20351;-93
2023/05/08 18:50:28;;;;;;;;;;;16.61;117.50;;;;;;2674729;76;20922;-93
2023/05/08 18:53:59;;;;;;;;;;;16.49;117.67;;;;;;2675601;76;20327;-93
2023/05/08 18:57:32;;;;;;;;;;;16.41;117.75;;;;;;2674932;76;20329;-93
2023/05/08 19:01:05;;;;;;;;;;;16.34;117.83;;;;;;2675006;76;20334;-92
2023/05/08 19:04:35;;;;;;;;;;;16.19;118.05;;;;;;2674089;76;20335;-92
2023/05/08 19:08:05;;;;;;;;;;;16.07;118.43;;;;;;2673348;76;20315;-92
2023/05/08 19:11:36;;;;;;;;;;;15.91;118.65;;;;;;2672451;76;20354;-92
2023/05/08 19:15:07;;;;;;;;;;;15.80;-5.94;;;;;;2671282;76;20805;-92
2023/05/08 19:18:37;;;;;;;;;;;15.67;-5.23;;;;;;2671915;76;20365;-92
2023/05/08 19:22:12;;;;;;;;;;;15.55;-4.75;;;;;;2674733;76;20351;-92
2023/05/08 19:25:40;;;;;;;;;;;15.45;-4.20;;;;;;2676343;76;20339;-91
2023/05/08 19:29:08;;;;;;;;;;;15.32;-4.22;;;;;;2681496;76;20304;-91
2023/05/08 19:32:44;;;;;;;;;;;15.18;-4.25;;;;;;2678312;76;20331;-92
2023/05/08 19:36:09;;;;;;;;;;;15.04;-3.22;;;;;;2674287;76;20356;-91
2023/05/08 19:39:37;;;;;;;;;;;14.94;-2.41;;;;;;2674230;76;20364;-90
2023/05/08 19:43:08;;;;;;;;;;;14.86;-1.29;;;;;;2674225;76;20336;-91
2023/05/08 19:46:42;;;;;;;;;;;14.84;-0.97;;;;;;2673476;76;20345;-92
2023/05/08 19:50:16;;;;;;;;;;;14.87;-0.99;;;;;;2671404;76;20417;-91
2023/05/08 19:53:42;;;;;;;;;;;14.94;-0.92;;;;;;2672888;76;20363;-90
2023/05/08 19:57:10;;;;;;;;;;;14.95;-0.63;;;;;;2672719;76;20310;-91
2023/05/08 20:00:43;;;;;;;;;;;14.95;-0.40;;;;;;2672177;76;20368;-91
2023/05/08 20:04:11;;;;;;;;;;;14.91;-0.62;;;;;;2672765;76;20322;-91
2023/05/08 20:07:42;;;;;;;;;;;14.88;-0.70;;;;;;2673400;76;20767;-90
2023/05/08 20:11:11;;;;;;;;;;;14.87;-0.58;;;;;;2672897;76;20352;-92
2023/05/08 20:14:39;;;;;;;;;;;14.88;-0.61;;;;;;2675826;76;20335;-92
2023/05/08 20:18:08;;;;;;;;;;;14.88;-0.61;;;;;;2675591;76;20389;-92
2023/05/08 20:21:36;;;;;;;;;;;14.89;-0.65;;;;;;2677824;76;20326;-93
2023/05/08 20:25:07;;;;;;;;;;;14.88;-0.62;;;;;;2672730;76;20401;-92
2023/05/08 20:28:35;;;;;;;;;;;14.85;-0.75;;;;;;2671813;76;20330;-91
2023/05/08 20:32:03;;;;;;;;;;;14.81;-0.83;;;;;;2673421;76;20335;-92
2023/05/08 20:35:31;;;;;;;;;;;14.81;-0.73;;;;;;2673969;76;20292;-91
2023/05/08 20:38:59;;;;;;;;;;;14.73;-0.47;;;;;;2673158;76;20628;-89
2023/05/08 20:42:30;;;;;;;;;;;14.69;-0.42;;;;;;2672958;76;20703;-91
2023/05/08 20:45:58;;;;;;;;;;;14.65;-0.48;;;;;;2673644;76;20411;-91
2023/05/08 20:49:26;;;;;;;;;;;14.60;-0.33;;;;;;2672656;76;20313;-92